Luminous Kobe-2 — JJ3868 — position and weather

sailwx.info

Track history (hours):
 
Tides and Currents Weather Stations Pressure Air Temp Water Temp Dewpoint Dewpoint Depression Visibility Wind Speed Wind Dir Waves Ship Positions

Luminous Kobe-2

Last reported at 2017-Feb-22 08:33 UTC. Time now 2017-Feb-22 08:38 UTC.
Position N 34°37' E 135°07'.

Length 105 m; draft 4.5 m.

Type: Passenger vessel. MMSI: 431000469.

Date/timePositionNaut miles runAvg speedWind from/ knotsBaromVisibWave heightAir tempDewpointWater temp
2017-Feb-22 08:33N 34°37' E 135°07'5 4.6
2017-Feb-22 07:27N 34°41' E 135°11'0 0.0
2017-Feb-22 06:27N 34°41' E 135°11'0 0.0
2017-Feb-22 05:27N 34°41' E 135°11'2 2.6
2017-Feb-22 04:33N 34°39' E 135°11'2 2.2
2017-Feb-22 03:33N 34°37' E 135°13'4 3.7
2017-Feb-22 02:32N 34°41' E 135°11'0 0.0
2017-Feb-22 01:32N 34°41' E 135°11'0 0.0
2017-Feb-22 00:26N 34°41' E 135°11'0 0.0
2017-Feb-21 23:32N 34°41' E 135°11'0 0.0
2017-Feb-21 22:32N 34°41' E 135°11'0 0.0
2017-Feb-21 21:32N 34°41' E 135°11'0 0.0
2017-Feb-21 20:26N 34°41' E 135°11'0 0.0
2017-Feb-21 19:32N 34°41' E 135°11'0 0.0
2017-Feb-21 18:32N 34°41' E 135°11'0 0.0
2017-Feb-21 17:32N 34°41' E 135°11'0 0.0
2017-Feb-21 16:32N 34°41' E 135°11'0 0.0
2017-Feb-21 15:20N 34°41' E 135°11'0 0.0
2017-Feb-21 14:32N 34°41' E 135°11'0 0.0
2017-Feb-21 13:32N 34°41' E 135°11'0 0.0
2017-Feb-21 12:33N 34°41' E 135°11'6 6.1
2017-Feb-21 11:33N 34°36' E 135°07'1 1.0
2017-Feb-21 10:34N 34°36' E 135°06'6 6.0
2017-Feb-21 09:32N 34°41' E 135°11'5 4.6
2017-Feb-21 08:33N 34°37' E 135°08'5 4.0
2017-Feb-21 07:26N 34°41' E 135°11'0 0.0
2017-Feb-21 06:32N 34°41' E 135°11'0 0.0
2017-Feb-21 05:32N 34°41' E 135°11'3 2.6
2017-Feb-21 04:33N 34°38' E 135°11'2 1.7
2017-Feb-21 03:33N 34°37' E 135°13'4 3.6
2017-Feb-21 02:31N 34°41' E 135°11'0 0.0
2017-Feb-21 01:31N 34°41' E 135°11'0 0.0
2017-Feb-21 00:31N 34°41' E 135°11'0 0.0
2017-Feb-20 23:25N 34°41' E 135°11'0 0.0
2017-Feb-20 22:31N 34°41' E 135°11'0 0.0
2017-Feb-20 21:31N 34°41' E 135°11'0 0.0
2017-Feb-20 20:31N 34°41' E 135°11'0 0.0
2017-Feb-20 19:25N 34°41' E 135°11'0 0.0
2017-Feb-20 18:25N 34°41' E 135°11'0 0.0
2017-Feb-20 16:31N 34°41' E 135°11'0 0.0
2017-Feb-20 15:31N 34°41' E 135°11'0 0.0
2017-Feb-20 14:31N 34°41' E 135°11'0 0.0
2017-Feb-20 13:31N 34°41' E 135°11'0 0.0
2017-Feb-20 12:33N 34°41' E 135°11'6 6.2
2017-Feb-20 11:33N 34°36' E 135°07'1 0.9
2017-Feb-20 10:34N 34°36' E 135°06'6 6.1
2017-Feb-20 09:32N 34°41' E 135°11'5 4.7
2017-Feb-20 08:33N 34°37' E 135°08'5 4.7
2017-Feb-20 07:33N 34°41' E 135°11'0 0.0
2017-Feb-20 06:30N 34°41' E 135°11'0 0.0
2017-Feb-20 05:30N 34°41' E 135°11'1 1.2
2017-Feb-20 04:33N 34°40' E 135°11'5 5.0
2017-Feb-20 03:33N 34°35' E 135°10'6 5.7
2017-Feb-20 02:29N 34°41' E 135°11'0 0.0
2017-Feb-20 01:29N 34°41' E 135°11'0 0.0
2017-Feb-20 00:23N 34°41' E 135°11'0 0.0
2017-Feb-19 23:23N 34°41' E 135°11'0 0.0
2017-Feb-19 22:29N 34°41' E 135°11'0 0.0
2017-Feb-19 21:23N 34°41' E 135°11'0 0.0
2017-Feb-19 20:23N 34°41' E 135°11'0 0.0
2017-Feb-19 19:29N 34°41' E 135°11'0 0.0
2017-Feb-19 18:29N 34°41' E 135°11'0 0.0
2017-Feb-19 17:29N 34°41' E 135°11'0 0.0
2017-Feb-19 16:29N 34°41' E 135°11'0 0.0
2017-Feb-19 15:29N 34°41' E 135°11'0 0.0
2017-Feb-19 14:29N 34°41' E 135°11'0 0.0
2017-Feb-19 13:17N 34°41' E 135°11'0 0.0
2017-Feb-19 12:31N 34°41' E 135°11'6 6.4
2017-Feb-19 11:33N 34°36' E 135°07'1 0.7
2017-Feb-19 10:34N 34°37' E 135°06'6 5.1
2017-Feb-19 09:24N 34°41' E 135°11'2 2.4
2017-Feb-19 08:33N 34°39' E 135°11'2 2.1
2017-Feb-19 07:33N 34°37' E 135°13'4 3.4
2017-Feb-19 06:28N 34°41' E 135°11'0 0.0
2017-Feb-19 05:28N 34°41' E 135°11'2 2.5
2017-Feb-19 04:33N 34°39' E 135°11'2 2.1
2017-Feb-19 03:33N 34°37' E 135°13'4 3.4
2017-Feb-19 02:28N 34°41' E 135°11'0 0.0
2017-Feb-19 01:28N 34°41' E 135°11'0 0.0
2017-Feb-19 00:28N 34°41' E 135°11'0 0.0
2017-Feb-18 23:28N 34°41' E 135°11'0 0.0
2017-Feb-18 22:28N 34°41' E 135°11'0 0.0
2017-Feb-18 21:28N 34°41' E 135°11'0 0.0
2017-Feb-18 20:28N 34°41' E 135°11'0 0.0
2017-Feb-18 19:28N 34°41' E 135°11'0 0.0
2017-Feb-18 18:28N 34°41' E 135°11'0 0.0
2017-Feb-18 17:28N 34°41' E 135°11'0 0.0
2017-Feb-18 16:28N 34°41' E 135°11'0 0.0
2017-Feb-18 15:28N 34°41' E 135°11'0 0.0
2017-Feb-18 14:28N 34°41' E 135°11'0 0.0
2017-Feb-18 13:28N 34°41' E 135°11'0 0.0
2017-Feb-18 12:33N 34°41' E 135°11'6 6.3
2017-Feb-18 11:33N 34°36' E 135°07'1 1.0
2017-Feb-18 10:33N 34°37' E 135°06'6 5.5
2017-Feb-18 09:29N 34°41' E 135°11'2 2.1
2017-Feb-18 08:33N 34°39' E 135°11'2 2.3
2017-Feb-18 07:33N 34°37' E 135°13'4 3.7
2017-Feb-18 06:33N 34°41' E 135°11'0 0.0
2017-Feb-18 05:33N 34°41' E 135°11'2 2.3
2017-Feb-18 04:33N 34°39' E 135°11'2 1.9
2017-Feb-18 03:33N 34°37' E 135°13'4 3.5
2017-Feb-18 02:32N 34°41' E 135°11'0 0.0
2017-Feb-18 01:32N 34°41' E 135°11'0 0.0
2017-Feb-18 00:32N 34°41' E 135°11'0 0.0
2017-Feb-17 23:32N 34°41' E 135°11'0 0.0
2017-Feb-17 22:32N 34°41' E 135°11'0 0.0
2017-Feb-17 21:26N 34°41' E 135°11'0 0.0
2017-Feb-17 20:32N 34°41' E 135°11'0 0.0
2017-Feb-17 19:32N 34°41' E 135°11'0 0.0
2017-Feb-17 18:32N 34°41' E 135°11'0 0.0
2017-Feb-17 17:32N 34°41' E 135°11'0 0.0
2017-Feb-17 16:26N 34°41' E 135°11'0 0.0
2017-Feb-17 15:32N 34°41' E 135°11'0 0.0
2017-Feb-17 14:32N 34°41' E 135°11'0 0.0
2017-Feb-17 13:32N 34°41' E 135°11'0 0.0
2017-Feb-17 12:33N 34°41' E 135°11'6 6.3
2017-Feb-17 11:33N 34°36' E 135°07'1 1.0
2017-Feb-17 10:33N 34°37' E 135°06'6 5.0
2017-Feb-17 09:23N 34°41' E 135°11'5 5.5
2017-Feb-17 08:33N 34°37' E 135°08'5 4.3
2017-Feb-17 07:29N 34°41' E 135°11'0 0.0
2017-Feb-17 06:29N 34°41' E 135°11'0 0.0
2017-Feb-17 05:29N 34°41' E 135°11'2 2.3
2017-Feb-17 04:33N 34°39' E 135°11'2 2.1
2017-Feb-17 03:33N 34°37' E 135°13'4 3.7
2017-Feb-17 02:33N 34°41' E 135°11'0 0.0
2017-Feb-17 01:33N 34°41' E 135°11'0 0.0
2017-Feb-17 00:33N 34°41' E 135°11'0 0.0
2017-Feb-16 23:27N 34°41' E 135°11'0 0.0
2017-Feb-16 22:33N 34°41' E 135°11'0 0.0
2017-Feb-16 21:21N 34°41' E 135°11'0 0.0
2017-Feb-16 20:33N 34°41' E 135°11'0 0.0
2017-Feb-16 19:21N 34°41' E 135°11'0 0.0
2017-Feb-16 18:33N 34°41' E 135°11'0 0.0
2017-Feb-16 17:33N 34°41' E 135°11'0 0.0
2017-Feb-16 16:33N 34°41' E 135°11'0 0.0
2017-Feb-16 15:21N 34°41' E 135°11'0 0.0
2017-Feb-16 14:33N 34°41' E 135°11'0 0.0
2017-Feb-16 13:33N 34°41' E 135°11'0 0.0
2017-Feb-16 12:33N 34°41' E 135°11'6 5.9
2017-Feb-16 11:33N 34°36' E 135°07'1 1.1
2017-Feb-16 10:33N 34°37' E 135°06'6 5.7
2017-Feb-16 09:30N 34°41' E 135°11'5 5.0
2017-Feb-16 08:33N 34°37' E 135°07'5 3.9
2017-Feb-16 07:21N 34°41' E 135°11'0 0.0
2017-Feb-16 06:27N 34°41' E 135°11'0 0.0
2017-Feb-16 05:27N 34°41' E 135°11'2 2.3
2017-Feb-16 04:33N 34°39' E 135°11'2 1.9
2017-Feb-16 03:33N 34°37' E 135°13'4 3.3
2017-Feb-16 02:29N 34°41' E 135°11'0 0.0
2017-Feb-16 01:23N 34°41' E 135°11'0 0.0
2017-Feb-16 00:29N 34°41' E 135°11'0 0.0
2017-Feb-15 23:29N 34°41' E 135°11'0 0.0
2017-Feb-15 22:29N 34°41' E 135°11'0 0.0
2017-Feb-15 21:29N 34°41' E 135°11'0 0.0
2017-Feb-15 20:29N 34°41' E 135°11'0 0.0
2017-Feb-15 19:29N 34°41' E 135°11'0 0.0
2017-Feb-15 18:29N 34°41' E 135°11'0 0.0
2017-Feb-15 17:29N 34°41' E 135°11'0 0.0
2017-Feb-15 16:29N 34°41' E 135°11'0 0.0
2017-Feb-15 15:29N 34°41' E 135°11'0 0.0
2017-Feb-15 14:23N 34°41' E 135°11'0 0.0
2017-Feb-15 13:29N 34°41' E 135°11'0 0.0
2017-Feb-15 12:24N 34°41' E 135°11'6 7.3
2017-Feb-15 11:33N 34°36' E 135°07'1 1.1
2017-Feb-15 10:33N 34°37' E 135°06'6 5.5
2017-Feb-15 09:29N 34°41' E 135°11'5 5.2
2017-Feb-15 08:34N 34°37' E 135°07'5 4.4
2017-Feb-15 07:27N 34°41' E 135°11'0 0.0
2017-Feb-15 06:33N 34°41' E 135°11'0 0.0
2017-Feb-15 05:27N 34°41' E 135°11'2 2.7
2017-Feb-15 04:33N 34°38' E 135°11'2 1.8
2017-Feb-15 03:33N 34°37' E 135°13'4 3.4
2017-Feb-15 02:29N 34°41' E 135°11'0 0.0
2017-Feb-15 01:23N 34°41' E 135°11'0 0.0
2017-Feb-15 00:29N 34°41' E 135°11'0 0.0
2017-Feb-14 23:29N 34°41' E 135°11'0 0.0
2017-Feb-14 22:29N 34°41' E 135°11'0 0.0
2017-Feb-14 21:23N 34°41' E 135°11'0 0.0
2017-Feb-14 20:29N 34°41' E 135°11'0 0.0
2017-Feb-14 19:29N 34°41' E 135°11'0 0.0
2017-Feb-14 18:29N 34°41' E 135°11'0 0.0
2017-Feb-14 17:29N 34°41' E 135°11'0 0.0
2017-Feb-14 16:29N 34°41' E 135°11'0 0.0
2017-Feb-14 15:29N 34°41' E 135°11'0 0.0
2017-Feb-14 14:11N 34°41' E 135°11'0 0.0
2017-Feb-14 13:29N 34°41' E 135°11'0 0.0
2017-Feb-14 12:29N 34°41' E 135°11'6 6.3
2017-Feb-14 11:33N 34°36' E 135°07'1 1.0
2017-Feb-14 10:33N 34°37' E 135°06'6 5.2
2017-Feb-14 09:22N 34°41' E 135°11'5 5.8
2017-Feb-14 08:33N 34°37' E 135°08'5 4.7
2017-Feb-14 07:33N 34°41' E 135°11'0 0.0
2017-Feb-14 06:33N 34°41' E 135°11'0 0.0
2017-Feb-14 05:33N 34°41' E 135°11'2 2.5
2017-Feb-14 04:33N 34°38' E 135°11'2 2.3
2017-Feb-14 03:33N 34°37' E 135°13'4 3.8
2017-Feb-14 02:33N 34°41' E 135°11'0 0.0
2017-Feb-14 01:33N 34°41' E 135°11'0 0.0
2017-Feb-14 00:33N 34°41' E 135°11'0 0.0
2017-Feb-13 23:33N 34°41' E 135°11'0 0.0
2017-Feb-13 22:33N 34°41' E 135°11'0 0.0
2017-Feb-13 21:33N 34°41' E 135°11'0 0.0
2017-Feb-13 20:33N 34°41' E 135°11'0 0.0
2017-Feb-13 19:33N 34°41' E 135°11'0 0.0
2017-Feb-13 18:33N 34°41' E 135°11'0 0.0
2017-Feb-13 17:33N 34°41' E 135°11'0 0.0
2017-Feb-13 16:33N 34°41' E 135°11'0 0.0
2017-Feb-13 15:33N 34°41' E 135°11'0 0.0
2017-Feb-13 14:33N 34°41' E 135°11'0 0.0
2017-Feb-13 13:33N 34°41' E 135°11'0 0.0
2017-Feb-13 12:33N 34°41' E 135°11'6 5.7
2017-Feb-13 11:33N 34°36' E 135°07'1 1.5
2017-Feb-13 10:33N 34°37' E 135°06'6 5.5
2017-Feb-13 09:26N 34°41' E 135°11'5 5.5
2017-Feb-13 08:33N 34°37' E 135°07'5 4.3
2017-Feb-13 07:25N 34°41' E 135°11'0 0.0
2017-Feb-13 06:31N 34°41' E 135°11'0 0.0
2017-Feb-13 05:31N 34°41' E 135°11'2 2.3
2017-Feb-13 04:33N 34°39' E 135°11'2 2.1
2017-Feb-13 03:33N 34°37' E 135°13'4 3.7
2017-Feb-13 02:32N 34°41' E 135°11'0 0.0
2017-Feb-13 01:32N 34°41' E 135°11'0 0.0
2017-Feb-13 00:32N 34°41' E 135°11'0 0.0
2017-Feb-12 23:32N 34°41' E 135°11'0 0.0
2017-Feb-12 22:32N 34°41' E 135°11'0 0.0
2017-Feb-12 21:26N 34°41' E 135°11'0 0.0
2017-Feb-12 20:32N 34°41' E 135°11'0 0.0
2017-Feb-12 19:32N 34°41' E 135°11'0 0.0
2017-Feb-12 18:32N 34°41' E 135°11'0 0.0
2017-Feb-12 17:26N 34°41' E 135°11'0 0.0
2017-Feb-12 16:32N 34°41' E 135°11'0 0.0
2017-Feb-12 15:32N 34°41' E 135°11'0 0.0
2017-Feb-12 14:32N 34°41' E 135°11'0 0.0
2017-Feb-12 13:32N 34°41' E 135°11'0 0.0
2017-Feb-12 12:32N 34°41' E 135°11'6 6.1
2017-Feb-12 11:33N 34°36' E 135°07'1 1.2
2017-Feb-12 10:33N 34°37' E 135°06'6 5.8
2017-Feb-12 09:29N 34°41' E 135°11'2 1.9
2017-Feb-12 08:33N 34°39' E 135°11'  
Track history (hours):
 
Tides and Currents Weather Stations Pressure Air Temp Water Temp Dewpoint Dewpoint Depression Visibility Wind Speed Wind Dir Waves Ship Positions

Luminous Kobe-2

Last reported at 2017-Feb-22 08:33 UTC. Time now 2017-Feb-22 08:38 UTC.
Position N 34°37' E 135°07'.

Length 105 m; draft 4.5 m.

Type: Passenger vessel. MMSI: 431000469.

Date/timePositionNaut miles runAvg speedWind from/ knotsBaromVisibWave heightAir tempDewpointWater temp
2017-Feb-22 08:33N 34°37' E 135°07'5 4.6
2017-Feb-22 07:27N 34°41' E 135°11'0 0.0
2017-Feb-22 06:27N 34°41' E 135°11'0 0.0
2017-Feb-22 05:27N 34°41' E 135°11'2 2.6
2017-Feb-22 04:33N 34°39' E 135°11'2 2.2
2017-Feb-22 03:33N 34°37' E 135°13'4 3.7
2017-Feb-22 02:32N 34°41' E 135°11'0 0.0
2017-Feb-22 01:32N 34°41' E 135°11'0 0.0
2017-Feb-22 00:26N 34°41' E 135°11'0 0.0
2017-Feb-21 23:32N 34°41' E 135°11'0 0.0
2017-Feb-21 22:32N 34°41' E 135°11'0 0.0
2017-Feb-21 21:32N 34°41' E 135°11'0 0.0
2017-Feb-21 20:26N 34°41' E 135°11'0 0.0
2017-Feb-21 19:32N 34°41' E 135°11'0 0.0
2017-Feb-21 18:32N 34°41' E 135°11'0 0.0
2017-Feb-21 17:32N 34°41' E 135°11'0 0.0
2017-Feb-21 16:32N 34°41' E 135°11'0 0.0
2017-Feb-21 15:20N 34°41' E 135°11'0 0.0
2017-Feb-21 14:32N 34°41' E 135°11'0 0.0
2017-Feb-21 13:32N 34°41' E 135°11'0 0.0
2017-Feb-21 12:33N 34°41' E 135°11'6 6.1
2017-Feb-21 11:33N 34°36' E 135°07'1 1.0
2017-Feb-21 10:34N 34°36' E 135°06'6 6.0
2017-Feb-21 09:32N 34°41' E 135°11'5 4.6
2017-Feb-21 08:33N 34°37' E 135°08'5 4.0
2017-Feb-21 07:26N 34°41' E 135°11'0 0.0
2017-Feb-21 06:32N 34°41' E 135°11'0 0.0
2017-Feb-21 05:32N 34°41' E 135°11'3 2.6
2017-Feb-21 04:33N 34°38' E 135°11'2 1.7
2017-Feb-21 03:33N 34°37' E 135°13'4 3.6
2017-Feb-21 02:31N 34°41' E 135°11'0 0.0
2017-Feb-21 01:31N 34°41' E 135°11'0 0.0
2017-Feb-21 00:31N 34°41' E 135°11'0 0.0
2017-Feb-20 23:25N 34°41' E 135°11'0 0.0
2017-Feb-20 22:31N 34°41' E 135°11'0 0.0
2017-Feb-20 21:31N 34°41' E 135°11'0 0.0
2017-Feb-20 20:31N 34°41' E 135°11'0 0.0
2017-Feb-20 19:25N 34°41' E 135°11'0 0.0
2017-Feb-20 18:25N 34°41' E 135°11'0 0.0
2017-Feb-20 16:31N 34°41' E 135°11'0 0.0
2017-Feb-20 15:31N 34°41' E 135°11'0 0.0
2017-Feb-20 14:31N 34°41' E 135°11'0 0.0
2017-Feb-20 13:31N 34°41' E 135°11'0 0.0
2017-Feb-20 12:33N 34°41' E 135°11'6 6.2
2017-Feb-20 11:33N 34°36' E 135°07'1 0.9
2017-Feb-20 10:34N 34°36' E 135°06'6 6.1
2017-Feb-20 09:32N 34°41' E 135°11'5 4.7
2017-Feb-20 08:33N 34°37' E 135°08'5 4.7
2017-Feb-20 07:33N 34°41' E 135°11'0 0.0
2017-Feb-20 06:30N 34°41' E 135°11'0 0.0
2017-Feb-20 05:30N 34°41' E 135°11'1 1.2
2017-Feb-20 04:33N 34°40' E 135°11'5 5.0
2017-Feb-20 03:33N 34°35' E 135°10'6 5.7
2017-Feb-20 02:29N 34°41' E 135°11'0 0.0
2017-Feb-20 01:29N 34°41' E 135°11'0 0.0
2017-Feb-20 00:23N 34°41' E 135°11'0 0.0
2017-Feb-19 23:23N 34°41' E 135°11'0 0.0
2017-Feb-19 22:29N 34°41' E 135°11'0 0.0
2017-Feb-19 21:23N 34°41' E 135°11'0 0.0
2017-Feb-19 20:23N 34°41' E 135°11'0 0.0
2017-Feb-19 19:29N 34°41' E 135°11'0 0.0
2017-Feb-19 18:29N 34°41' E 135°11'0 0.0
2017-Feb-19 17:29N 34°41' E 135°11'0 0.0
2017-Feb-19 16:29N 34°41' E 135°11'0 0.0
2017-Feb-19 15:29N 34°41' E 135°11'0 0.0
2017-Feb-19 14:29N 34°41' E 135°11'0 0.0
2017-Feb-19 13:17N 34°41' E 135°11'0 0.0
2017-Feb-19 12:31N 34°41' E 135°11'6 6.4
2017-Feb-19 11:33N 34°36' E 135°07'1 0.7
2017-Feb-19 10:34N 34°37' E 135°06'6 5.1
2017-Feb-19 09:24N 34°41' E 135°11'2 2.4
2017-Feb-19 08:33N 34°39' E 135°11'2 2.1
2017-Feb-19 07:33N 34°37' E 135°13'4 3.4
2017-Feb-19 06:28N 34°41' E 135°11'0 0.0
2017-Feb-19 05:28N 34°41' E 135°11'2 2.5
2017-Feb-19 04:33N 34°39' E 135°11'2 2.1
2017-Feb-19 03:33N 34°37' E 135°13'4 3.4
2017-Feb-19 02:28N 34°41' E 135°11'0 0.0
2017-Feb-19 01:28N 34°41' E 135°11'0 0.0
2017-Feb-19 00:28N 34°41' E 135°11'0 0.0
2017-Feb-18 23:28N 34°41' E 135°11'0 0.0
2017-Feb-18 22:28N 34°41' E 135°11'0 0.0
2017-Feb-18 21:28N 34°41' E 135°11'0 0.0
2017-Feb-18 20:28N 34°41' E 135°11'0 0.0
2017-Feb-18 19:28N 34°41' E 135°11'0 0.0
2017-Feb-18 18:28N 34°41' E 135°11'0 0.0
2017-Feb-18 17:28N 34°41' E 135°11'0 0.0
2017-Feb-18 16:28N 34°41' E 135°11'0 0.0
2017-Feb-18 15:28N 34°41' E 135°11'0 0.0
2017-Feb-18 14:28N 34°41' E 135°11'0 0.0
2017-Feb-18 13:28N 34°41' E 135°11'0 0.0
2017-Feb-18 12:33N 34°41' E 135°11'6 6.3
2017-Feb-18 11:33N 34°36' E 135°07'1 1.0
2017-Feb-18 10:33N 34°37' E 135°06'6 5.5
2017-Feb-18 09:29N 34°41' E 135°11'2 2.1
2017-Feb-18 08:33N 34°39' E 135°11'2 2.3
2017-Feb-18 07:33N 34°37' E 135°13'4 3.7
2017-Feb-18 06:33N 34°41' E 135°11'0 0.0
2017-Feb-18 05:33N 34°41' E 135°11'2 2.3
2017-Feb-18 04:33N 34°39' E 135°11'2 1.9
2017-Feb-18 03:33N 34°37' E 135°13'4 3.5
2017-Feb-18 02:32N 34°41' E 135°11'0 0.0
2017-Feb-18 01:32N 34°41' E 135°11'0 0.0
2017-Feb-18 00:32N 34°41' E 135°11'0 0.0
2017-Feb-17 23:32N 34°41' E 135°11'0 0.0
2017-Feb-17 22:32N 34°41' E 135°11'0 0.0
2017-Feb-17 21:26N 34°41' E 135°11'0 0.0
2017-Feb-17 20:32N 34°41' E 135°11'0 0.0
2017-Feb-17 19:32N 34°41' E 135°11'0 0.0
2017-Feb-17 18:32N 34°41' E 135°11'0 0.0
2017-Feb-17 17:32N 34°41' E 135°11'0 0.0
2017-Feb-17 16:26N 34°41' E 135°11'0 0.0
2017-Feb-17 15:32N 34°41' E 135°11'0 0.0
2017-Feb-17 14:32N 34°41' E 135°11'0 0.0
2017-Feb-17 13:32N 34°41' E 135°11'0 0.0
2017-Feb-17 12:33N 34°41' E 135°11'6 6.3
2017-Feb-17 11:33N 34°36' E 135°07'1 1.0
2017-Feb-17 10:33N 34°37' E 135°06'6 5.0
2017-Feb-17 09:23N 34°41' E 135°11'5 5.5
2017-Feb-17 08:33N 34°37' E 135°08'5 4.3
2017-Feb-17 07:29N 34°41' E 135°11'0 0.0
2017-Feb-17 06:29N 34°41' E 135°11'0 0.0
2017-Feb-17 05:29N 34°41' E 135°11'2 2.3
2017-Feb-17 04:33N 34°39' E 135°11'2 2.1
2017-Feb-17 03:33N 34°37' E 135°13'4 3.7
2017-Feb-17 02:33N 34°41' E 135°11'0 0.0
2017-Feb-17 01:33N 34°41' E 135°11'0 0.0
2017-Feb-17 00:33N 34°41' E 135°11'0 0.0
2017-Feb-16 23:27N 34°41' E 135°11'0 0.0
2017-Feb-16 22:33N 34°41' E 135°11'0 0.0
2017-Feb-16 21:21N 34°41' E 135°11'0 0.0
2017-Feb-16 20:33N 34°41' E 135°11'0 0.0
2017-Feb-16 19:21N 34°41' E 135°11'0 0.0
2017-Feb-16 18:33N 34°41' E 135°11'0 0.0
2017-Feb-16 17:33N 34°41' E 135°11'0 0.0
2017-Feb-16 16:33N 34°41' E 135°11'0 0.0
2017-Feb-16 15:21N 34°41' E 135°11'0 0.0
2017-Feb-16 14:33N 34°41' E 135°11'0 0.0
2017-Feb-16 13:33N 34°41' E 135°11'0 0.0
2017-Feb-16 12:33N 34°41' E 135°11'6 5.9
2017-Feb-16 11:33N 34°36' E 135°07'1 1.1
2017-Feb-16 10:33N 34°37' E 135°06'6 5.7
2017-Feb-16 09:30N 34°41' E 135°11'5 5.0
2017-Feb-16 08:33N 34°37' E 135°07'5 3.9
2017-Feb-16 07:21N 34°41' E 135°11'0 0.0
2017-Feb-16 06:27N 34°41' E 135°11'0 0.0
2017-Feb-16 05:27N 34°41' E 135°11'2 2.3
2017-Feb-16 04:33N 34°39' E 135°11'2 1.9
2017-Feb-16 03:33N 34°37' E 135°13'4 3.3
2017-Feb-16 02:29N 34°41' E 135°11'0 0.0
2017-Feb-16 01:23N 34°41' E 135°11'0 0.0
2017-Feb-16 00:29N 34°41' E 135°11'0 0.0
2017-Feb-15 23:29N 34°41' E 135°11'0 0.0
2017-Feb-15 22:29N 34°41' E 135°11'0 0.0
2017-Feb-15 21:29N 34°41' E 135°11'0 0.0
2017-Feb-15 20:29N 34°41' E 135°11'0 0.0
2017-Feb-15 19:29N 34°41' E 135°11'0 0.0
2017-Feb-15 18:29N 34°41' E 135°11'0 0.0
2017-Feb-15 17:29N 34°41' E 135°11'0 0.0
2017-Feb-15 16:29N 34°41' E 135°11'0 0.0
2017-Feb-15 15:29N 34°41' E 135°11'0 0.0
2017-Feb-15 14:23N 34°41' E 135°11'0 0.0
2017-Feb-15 13:29N 34°41' E 135°11'0 0.0
2017-Feb-15 12:24N 34°41' E 135°11'6 7.3
2017-Feb-15 11:33N 34°36' E 135°07'1 1.1
2017-Feb-15 10:33N 34°37' E 135°06'6 5.5
2017-Feb-15 09:29N 34°41' E 135°11'5 5.2
2017-Feb-15 08:34N 34°37' E 135°07'5 4.4
2017-Feb-15 07:27N 34°41' E 135°11'0 0.0
2017-Feb-15 06:33N 34°41' E 135°11'0 0.0
2017-Feb-15 05:27N 34°41' E 135°11'2 2.7
2017-Feb-15 04:33N 34°38' E 135°11'2 1.8
2017-Feb-15 03:33N 34°37' E 135°13'4 3.4
2017-Feb-15 02:29N 34°41' E 135°11'0 0.0
2017-Feb-15 01:23N 34°41' E 135°11'0 0.0
2017-Feb-15 00:29N 34°41' E 135°11'0 0.0
2017-Feb-14 23:29N 34°41' E 135°11'0 0.0
2017-Feb-14 22:29N 34°41' E 135°11'0 0.0
2017-Feb-14 21:23N 34°41' E 135°11'0 0.0
2017-Feb-14 20:29N 34°41' E 135°11'0 0.0
2017-Feb-14 19:29N 34°41' E 135°11'0 0.0
2017-Feb-14 18:29N 34°41' E 135°11'0 0.0
2017-Feb-14 17:29N 34°41' E 135°11'0 0.0
2017-Feb-14 16:29N 34°41' E 135°11'0 0.0
2017-Feb-14 15:29N 34°41' E 135°11'0 0.0
2017-Feb-14 14:11N 34°41' E 135°11'0 0.0
2017-Feb-14 13:29N 34°41' E 135°11'0 0.0
2017-Feb-14 12:29N 34°41' E 135°11'6 6.3
2017-Feb-14 11:33N 34°36' E 135°07'1 1.0
2017-Feb-14 10:33N 34°37' E 135°06'6 5.2
2017-Feb-14 09:22N 34°41' E 135°11'5 5.8
2017-Feb-14 08:33N 34°37' E 135°08'5 4.7
2017-Feb-14 07:33N 34°41' E 135°11'0 0.0
2017-Feb-14 06:33N 34°41' E 135°11'0 0.0
2017-Feb-14 05:33N 34°41' E 135°11'2 2.5
2017-Feb-14 04:33N 34°38' E 135°11'2 2.3
2017-Feb-14 03:33N 34°37' E 135°13'4 3.8
2017-Feb-14 02:33N 34°41' E 135°11'0 0.0
2017-Feb-14 01:33N 34°41' E 135°11'0 0.0
2017-Feb-14 00:33N 34°41' E 135°11'0 0.0
2017-Feb-13 23:33N 34°41' E 135°11'0 0.0
2017-Feb-13 22:33N 34°41' E 135°11'0 0.0
2017-Feb-13 21:33N 34°41' E 135°11'0 0.0
2017-Feb-13 20:33N 34°41' E 135°11'0 0.0
2017-Feb-13 19:33N 34°41' E 135°11'0 0.0
2017-Feb-13 18:33N 34°41' E 135°11'0 0.0
2017-Feb-13 17:33N 34°41' E 135°11'0 0.0
2017-Feb-13 16:33N 34°41' E 135°11'0 0.0
2017-Feb-13 15:33N 34°41' E 135°11'0 0.0
2017-Feb-13 14:33N 34°41' E 135°11'0 0.0
2017-Feb-13 13:33N 34°41' E 135°11'0 0.0
2017-Feb-13 12:33N 34°41' E 135°11'6 5.7
2017-Feb-13 11:33N 34°36' E 135°07'1 1.5
2017-Feb-13 10:33N 34°37' E 135°06'6 5.5
2017-Feb-13 09:26N 34°41' E 135°11'5 5.5
2017-Feb-13 08:33N 34°37' E 135°07'5 4.3
2017-Feb-13 07:25N 34°41' E 135°11'0 0.0
2017-Feb-13 06:31N 34°41' E 135°11'0 0.0
2017-Feb-13 05:31N 34°41' E 135°11'2 2.3
2017-Feb-13 04:33N 34°39' E 135°11'2 2.1
2017-Feb-13 03:33N 34°37' E 135°13'4 3.7
2017-Feb-13 02:32N 34°41' E 135°11'0 0.0
2017-Feb-13 01:32N 34°41' E 135°11'0 0.0
2017-Feb-13 00:32N 34°41' E 135°11'0 0.0
2017-Feb-12 23:32N 34°41' E 135°11'0 0.0
2017-Feb-12 22:32N 34°41' E 135°11'0 0.0
2017-Feb-12 21:26N 34°41' E 135°11'0 0.0
2017-Feb-12 20:32N 34°41' E 135°11'0 0.0
2017-Feb-12 19:32N 34°41' E 135°11'0 0.0
2017-Feb-12 18:32N 34°41' E 135°11'0 0.0
2017-Feb-12 17:26N 34°41' E 135°11'0 0.0
2017-Feb-12 16:32N 34°41' E 135°11'0 0.0
2017-Feb-12 15:32N 34°41' E 135°11'0 0.0
2017-Feb-12 14:32N 34°41' E 135°11'0 0.0
2017-Feb-12 13:32N 34°41' E 135°11'0 0.0
2017-Feb-12 12:32N 34°41' E 135°11'6 6.1
2017-Feb-12 11:33N 34°36' E 135°07'1 1.2
2017-Feb-12 10:33N 34°37' E 135°06'6 5.8
2017-Feb-12 09:29N 34°41' E 135°11'2 1.9
2017-Feb-12 08:33N 34°39' E 135°11'  

Dump ship's entire track history